createdAt,value
2017-05-13T00:01:43.221Z,16.80
2017-05-13T00:04:09.888Z,16.62
2017-05-13T00:06:38.374Z,17.06
2017-05-13T00:09:10.129Z,17.69
2017-05-13T00:11:36.525Z,16.81
2017-05-13T00:14:03.004Z,17.05
2017-05-13T00:16:29.894Z,17.67
2017-05-13T00:18:57.669Z,17.92
2017-05-13T00:21:24.075Z,17.90
2017-05-13T00:23:50.743Z,17.89
2017-05-13T00:26:18.257Z,17.79
2017-05-13T00:28:44.655Z,16.06
2017-05-13T00:31:14.123Z,15.74
2017-05-13T00:33:40.874Z,16.21
2017-05-13T00:36:07.360Z,16.12
2017-05-13T00:38:39.766Z,15.36
2017-05-13T00:41:07.058Z,15.58
2017-05-13T00:43:33.835Z,15.41
2017-05-13T00:46:00.391Z,15.33
2017-05-13T00:48:26.977Z,14.93
2017-05-13T00:50:53.314Z,15.61
2017-05-13T00:53:19.807Z,14.80
2017-05-13T00:55:47.401Z,14.86
2017-05-13T00:58:13.871Z,15.34
2017-05-13T01:00:41.144Z,16.23
2017-05-13T01:03:09.844Z,15.50
2017-05-13T01:05:36.996Z,15.42
2017-05-13T01:08:03.558Z,14.70
2017-05-13T01:10:35.482Z,14.67
2017-05-13T01:13:07.050Z,14.93
2017-05-13T01:15:37.333Z,14.66
2017-05-13T01:18:03.706Z,15.92
2017-05-13T01:20:30.080Z,16.70
2017-05-13T01:23:02.503Z,16.86
2017-05-13T01:25:29.577Z,15.59
2017-05-13T01:27:56.570Z,14.90
2017-05-13T01:30:23.811Z,14.74
2017-05-13T01:32:50.521Z,14.61
2017-05-13T01:35:16.918Z,15.41
2017-05-13T01:37:43.378Z,14.84
2017-05-13T01:40:09.949Z,15.86
2017-05-13T01:42:37.563Z,15.33
2017-05-13T01:45:04.037Z,15.47
2017-05-13T01:47:30.372Z,15.96
2017-05-13T01:49:58.423Z,15.08
2017-05-13T01:52:30.392Z,15.33
2017-05-13T01:55:02.724Z,16.19
2017-05-13T01:57:29.909Z,16.38
2017-05-13T02:00:01.305Z,16.06
2017-05-13T02:02:28.040Z,16.22
2017-05-13T02:04:55.567Z,16.44
2017-05-13T02:07:28.638Z,16.46
2017-05-13T02:09:56.064Z,15.58
2017-05-13T02:12:22.698Z,15.20
2017-05-13T02:14:54.761Z,14.69
2017-05-13T02:17:22.062Z,14.98
2017-05-13T02:19:48.613Z,14.52
2017-05-13T02:22:16.231Z,14.26
2017-05-13T02:24:43.024Z,14.68
2017-05-13T02:27:09.479Z,14.52
2017-05-13T02:29:36.322Z,14.57
2017-05-13T02:32:02.842Z,13.81
2017-05-13T02:34:29.194Z,14.17
2017-05-13T02:36:56.532Z,15.05
2017-05-13T02:39:23.039Z,15.28
2017-05-13T02:41:49.795Z,15.60
2017-05-13T02:44:16.427Z,14.67
2017-05-13T02:46:42.811Z,14.86
2017-05-13T02:49:10.152Z,15.73
2017-05-13T02:51:37.553Z,16.03
2017-05-13T02:54:09.445Z,15.53
2017-05-13T02:56:41.568Z,15.86
2017-05-13T02:59:07.920Z,15.54
2017-05-13T03:01:34.524Z,15.38
2017-05-13T03:04:01.264Z,14.23
2017-05-13T03:06:28.079Z,14.05
2017-05-13T03:08:59.776Z,14.01
2017-05-13T03:11:27.536Z,13.93
2017-05-13T03:13:55.091Z,13.94
2017-05-13T03:16:25.304Z,14.59
2017-05-13T03:18:51.665Z,14.29
2017-05-13T03:21:21.257Z,14.10
2017-05-13T03:23:47.700Z,13.86
2017-05-13T03:26:14.825Z,13.62
2017-05-13T03:28:41.664Z,13.83
2017-05-13T03:31:08.422Z,13.81
2017-05-13T03:33:41.194Z,13.87
2017-05-13T03:36:08.596Z,13.67
2017-05-13T03:38:34.927Z,14.85
2017-05-13T03:41:01.346Z,14.36
2017-05-13T03:43:28.049Z,14.08
2017-05-13T03:45:55.880Z,14.48
2017-05-13T03:48:22.389Z,14.47
2017-05-13T03:50:48.817Z,15.31
2017-05-13T03:53:16.291Z,15.44
2017-05-13T03:55:43.247Z,15.53
2017-05-13T03:58:11.162Z,15.35
2017-05-13T04:00:37.589Z,15.83
2017-05-13T04:03:04.575Z,15.23
2017-05-13T04:05:31.823Z,14.68
2017-05-13T04:07:58.591Z,15.08
2017-05-13T04:10:25.192Z,15.26
2017-05-13T04:12:51.568Z,15.73
2017-05-13T04:15:23.290Z,15.29
2017-05-13T04:17:49.919Z,15.02
2017-05-13T04:20:17.126Z,14.57
2017-05-13T04:22:44.605Z,14.60
2017-05-13T04:25:11.462Z,14.87
2017-05-13T04:27:42.998Z,15.65
2017-05-13T04:30:09.511Z,15.10
2017-05-13T04:32:36.028Z,15.55
2017-05-13T04:35:02.600Z,15.79
2017-05-13T04:37:29.032Z,14.97
2017-05-13T04:39:55.430Z,14.99
2017-05-13T04:42:25.835Z,14.94
2017-05-13T04:45:03.400Z,14.86
2017-05-13T04:47:29.728Z,15.58
2017-05-13T04:49:57.578Z,15.51
2017-05-13T04:52:26.944Z,14.79
2017-05-13T04:54:53.367Z,14.78
2017-05-13T04:57:19.885Z,15.14
2017-05-13T04:59:49.328Z,14.86
2017-05-13T05:02:15.675Z,15.11
2017-05-13T05:04:42.168Z,15.46
2017-05-13T05:07:09.564Z,16.08
2017-05-13T05:09:35.863Z,16.00
2017-05-13T05:12:02.182Z,15.61
2017-05-13T05:14:33.795Z,15.67
2017-05-13T05:17:00.348Z,15.47
2017-05-13T05:19:29.331Z,15.58
2017-05-13T05:21:55.794Z,15.74
2017-05-13T05:24:27.360Z,16.07
2017-05-13T05:26:58.949Z,16.21
2017-05-13T05:29:25.426Z,16.40
2017-05-13T05:31:52.747Z,16.54
2017-05-13T05:34:25.125Z,16.42
2017-05-13T05:36:51.967Z,16.59
2017-05-13T05:39:18.555Z,16.62
2017-05-13T05:41:45.066Z,16.75
2017-05-13T05:44:11.473Z,16.47
2017-05-13T05:46:37.955Z,16.77
2017-05-13T05:49:04.748Z,16.83
2017-05-13T05:51:31.238Z,16.86
2017-05-13T05:53:58.127Z,16.98
2017-05-13T05:56:24.998Z,16.95
2017-05-13T05:58:51.504Z,17.04
2017-05-13T06:01:17.830Z,17.04
2017-05-13T06:03:44.254Z,17.07
2017-05-13T06:06:17.754Z,17.13
2017-05-13T06:08:44.162Z,17.20
2017-05-13T06:11:12.017Z,17.23
2017-05-13T06:13:38.733Z,17.33
2017-05-13T06:16:05.084Z,17.36
2017-05-13T06:18:31.568Z,17.31
2017-05-13T06:21:01.982Z,17.36
2017-05-13T06:23:29.108Z,17.32
2017-05-13T06:26:00.659Z,17.28
2017-05-13T06:28:27.801Z,17.37
2017-05-13T06:30:59.602Z,17.45
2017-05-13T06:33:26.030Z,17.44
2017-05-13T06:35:53.198Z,17.46
2017-05-13T06:38:20.681Z,17.41
2017-05-13T06:40:52.407Z,17.50
2017-05-13T06:43:18.918Z,17.46
2017-05-13T06:45:47.318Z,17.44
2017-05-13T06:48:14.151Z,17.36
2017-05-13T06:50:45.590Z,17.45
2017-05-13T06:53:12.419Z,17.56
2017-05-13T06:55:38.823Z,17.64
2017-05-13T06:58:05.221Z,17.76
2017-05-13T07:00:35.547Z,17.83
2017-05-13T07:03:03.333Z,17.90
2017-05-13T07:05:34.114Z,18.13
2017-05-13T07:08:08.644Z,18.04
2017-05-13T07:10:35.320Z,18.37
2017-05-13T07:13:02.512Z,18.28
2017-05-13T07:15:34.995Z,18.35
2017-05-13T07:18:06.716Z,18.64
2017-05-13T07:20:33.544Z,18.50
2017-05-13T07:23:00.478Z,18.51
2017-05-13T07:25:31.938Z,18.57
2017-05-13T07:27:58.564Z,18.89
2017-05-13T07:30:28.021Z,19.02
2017-05-13T07:32:54.338Z,18.90
2017-05-13T07:35:21.378Z,18.79
2017-05-13T07:37:59.148Z,18.82
2017-05-13T07:40:25.586Z,18.86
2017-05-13T07:42:52.024Z,19.22
2017-05-13T07:45:19.422Z,19.01
2017-05-13T07:47:45.922Z,19.40
2017-05-13T07:50:12.414Z,19.43
2017-05-13T07:52:38.847Z,19.13
2017-05-13T07:55:06.651Z,19.45
2017-05-13T07:57:33.048Z,19.44
2017-05-13T07:59:59.524Z,19.70
2017-05-13T08:02:25.965Z,19.31
2017-05-13T08:04:52.314Z,19.46
2017-05-13T08:07:18.776Z,19.33
2017-05-13T08:09:50.253Z,19.88
2017-05-13T08:12:16.600Z,19.99
2017-05-13T08:14:43.453Z,19.85
2017-05-13T08:17:09.905Z,19.89
2017-05-13T08:19:36.316Z,19.68
2017-05-13T08:22:02.809Z,20.11
2017-05-13T08:24:29.166Z,20.49
2017-05-13T08:26:56.797Z,20.66
2017-05-13T08:29:24.259Z,19.93
2017-05-13T08:31:51.633Z,19.87
2017-05-13T08:34:19.030Z,20.59
2017-05-13T08:36:48.382Z,20.83
2017-05-13T08:39:15.196Z,20.89
2017-05-13T08:41:41.586Z,20.75
2017-05-13T08:44:13.133Z,21.38
2017-05-13T08:46:39.533Z,21.06
2017-05-13T08:49:05.880Z,21.04
2017-05-13T08:51:32.202Z,20.90
2017-05-13T08:53:58.890Z,20.50
2017-05-13T08:56:25.668Z,20.40
2017-05-13T08:58:52.002Z,20.47
2017-05-13T09:01:23.850Z,20.96
2017-05-13T09:03:50.215Z,21.30
2017-05-13T09:06:16.559Z,21.22
2017-05-13T09:08:44.018Z,21.58
2017-05-13T09:11:10.517Z,21.10
2017-05-13T09:13:37.875Z,22.13
2017-05-13T09:16:04.270Z,22.07
2017-05-13T09:18:30.701Z,21.37
2017-05-13T09:21:02.464Z,21.24
2017-05-13T09:23:34.169Z,21.25
2017-05-13T09:26:01.270Z,21.78
2017-05-13T09:28:27.650Z,21.62
2017-05-13T09:30:59.506Z,21.63
2017-05-13T09:33:26.020Z,22.16
2017-05-13T09:35:52.917Z,21.92
2017-05-13T09:38:19.255Z,20.67
2017-05-13T09:40:50.876Z,21.16
2017-05-13T09:43:17.519Z,21.24
2017-05-13T09:45:44.076Z,21.66
2017-05-13T09:48:11.584Z,21.27
2017-05-13T09:50:37.934Z,21.36
2017-05-13T09:53:09.839Z,21.78
2017-05-13T09:55:41.333Z,21.72
2017-05-13T09:58:07.788Z,21.30
2017-05-13T10:00:34.163Z,21.90
2017-05-13T10:03:00.855Z,22.22
2017-05-13T10:05:27.528Z,22.37
2017-05-13T10:07:53.911Z,22.28
2017-05-13T10:10:20.252Z,22.45
2017-05-13T10:12:46.595Z,21.57
2017-05-13T10:15:18.530Z,22.78
2017-05-13T10:17:44.937Z,22.45
2017-05-13T10:20:11.238Z,23.32
2017-05-13T10:22:38.228Z,23.08
2017-05-13T10:25:04.568Z,22.98
2017-05-13T10:27:31.718Z,22.56
2017-05-13T10:29:59.652Z,22.97
2017-05-13T10:32:26.084Z,23.07
2017-05-13T10:34:52.432Z,22.83
2017-05-13T10:37:18.729Z,22.78
2017-05-13T10:39:45.849Z,23.25
2017-05-13T10:42:12.331Z,23.80
2017-05-13T10:44:39.869Z,24.08
2017-05-13T10:47:06.259Z,23.98
2017-05-13T10:49:37.951Z,24.04
2017-05-13T10:52:04.652Z,23.66
2017-05-13T10:54:30.990Z,24.86
2017-05-13T10:56:57.398Z,24.08
2017-05-13T10:59:23.979Z,23.96
2017-05-13T11:01:50.314Z,24.15
2017-05-13T11:04:16.778Z,24.73
2017-05-13T11:06:43.569Z,24.65
2017-05-13T11:09:16.193Z,24.15
2017-05-13T11:11:43.565Z,24.46
2017-05-13T11:14:09.892Z,25.16
2017-05-13T11:16:36.941Z,24.30
2017-05-13T11:19:04.157Z,23.37
2017-05-13T11:21:30.567Z,24.16
2017-05-13T11:23:56.883Z,24.48
2017-05-13T11:26:23.582Z,24.75
2017-05-13T11:28:49.981Z,24.56
2017-05-13T11:31:21.895Z,24.36
2017-05-13T11:33:49.192Z,24.81
2017-05-13T11:36:15.665Z,24.49
2017-05-13T11:38:42.918Z,23.98
2017-05-13T11:41:14.519Z,24.56
2017-05-13T11:43:41.132Z,23.77
2017-05-13T11:46:09.112Z,23.25
2017-05-13T11:48:35.534Z,24.12
2017-05-13T11:51:01.944Z,23.85
2017-05-13T11:53:28.776Z,24.85
2017-05-13T11:55:55.984Z,24.96
2017-05-13T11:58:27.560Z,24.33
2017-05-13T12:00:53.871Z,23.38
2017-05-13T12:03:20.251Z,23.96
2017-05-13T12:05:46.959Z,25.21
2017-05-13T12:08:13.847Z,24.04
2017-05-13T12:10:40.285Z,24.45
2017-05-13T12:13:06.649Z,24.24
2017-05-13T12:15:38.648Z,24.92
2017-05-13T12:18:05.376Z,24.33
2017-05-13T12:20:33.381Z,24.06
2017-05-13T12:23:05.040Z,23.89
2017-05-13T12:25:31.609Z,23.60
2017-05-13T12:27:58.014Z,23.73
2017-05-13T12:30:29.672Z,23.12
2017-05-13T12:32:56.012Z,24.62
2017-05-13T12:35:22.398Z,24.48
2017-05-13T12:37:54.060Z,23.42
2017-05-13T12:40:21.163Z,23.10
2017-05-13T12:42:47.550Z,23.71
2017-05-13T12:45:13.886Z,24.02
2017-05-13T12:47:40.296Z,24.08
2017-05-13T12:50:06.706Z,23.35
2017-05-13T12:52:33.079Z,24.81
2017-05-13T12:54:59.991Z,23.94
2017-05-13T12:57:37.562Z,24.99
2017-05-13T13:00:10.132Z,24.43
2017-05-13T13:02:37.325Z,23.89
2017-05-13T13:05:06.868Z,24.05
2017-05-13T13:07:33.650Z,24.49
2017-05-13T13:10:00.204Z,25.10
2017-05-13T13:12:26.688Z,24.89
2017-05-13T13:14:54.070Z,23.62
2017-05-13T13:17:26.457Z,24.48
2017-05-13T13:19:53.034Z,25.08
2017-05-13T13:22:19.597Z,24.52
2017-05-13T13:24:51.364Z,24.07
2017-05-13T13:27:17.721Z,23.85
2017-05-13T13:29:44.371Z,24.33
2017-05-13T13:32:11.119Z,23.35
2017-05-13T13:34:37.468Z,23.25
2017-05-13T13:37:03.770Z,23.79
2017-05-13T13:39:30.250Z,24.22
2017-05-13T13:41:57.651Z,24.18
2017-05-13T13:44:24.071Z,24.72
2017-05-13T13:46:55.632Z,25.55
2017-05-13T13:49:27.687Z,24.78
2017-05-13T13:51:54.070Z,25.32
2017-05-13T13:54:25.559Z,25.19
2017-05-13T13:56:52.034Z,25.24
2017-05-13T13:59:18.349Z,24.29
2017-05-13T14:01:44.738Z,24.98
2017-05-13T14:04:11.161Z,25.28
2017-05-13T14:06:37.472Z,25.74
2017-05-13T14:09:09.081Z,25.40
2017-05-13T14:11:35.402Z,25.50
2017-05-13T14:14:07.000Z,24.75
2017-05-13T14:16:38.879Z,25.33
2017-05-13T14:19:11.338Z,25.55
2017-05-13T14:21:37.789Z,25.58
2017-05-13T14:24:09.399Z,25.63
2017-05-13T14:26:35.824Z,25.58
2017-05-13T14:29:02.603Z,25.13
2017-05-13T14:31:28.995Z,25.13
2017-05-13T14:33:55.380Z,25.71
2017-05-13T14:36:21.727Z,25.83
2017-05-13T14:38:53.447Z,25.91
2017-05-13T14:41:20.191Z,25.60
2017-05-13T14:43:51.737Z,25.07
2017-05-13T14:46:20.124Z,25.25
2017-05-13T14:48:47.293Z,25.15
2017-05-13T14:51:14.501Z,25.68
2017-05-13T14:53:40.904Z,25.76
2017-05-13T14:56:07.676Z,25.74
2017-05-13T14:58:41.421Z,25.29
2017-05-13T15:01:13.830Z,25.24
2017-05-13T15:03:45.402Z,24.85
2017-05-13T15:06:11.746Z,25.15
2017-05-13T15:08:43.293Z,25.58
2017-05-13T15:11:09.695Z,25.88
2017-05-13T15:13:36.271Z,26.08
2017-05-13T15:16:02.578Z,26.50
2017-05-13T15:18:34.759Z,26.33
2017-05-13T15:21:06.421Z,25.57
2017-05-13T15:23:33.929Z,25.64
2017-05-13T15:26:05.429Z,25.58
2017-05-13T15:28:32.634Z,25.41
2017-05-13T15:30:59.489Z,25.33
2017-05-13T15:33:31.154Z,24.74
2017-05-13T15:35:57.890Z,25.03
2017-05-13T15:38:29.360Z,25.02
2017-05-13T15:40:58.857Z,24.86
2017-05-13T15:43:30.427Z,25.30
2017-05-13T15:45:56.882Z,25.46
2017-05-13T15:48:28.634Z,26.10
2017-05-13T15:50:55.190Z,26.07
2017-05-13T15:53:22.039Z,25.38
2017-05-13T15:55:48.754Z,26.02
2017-05-13T15:58:20.698Z,25.85
2017-05-13T16:00:47.131Z,26.35
2017-05-13T16:03:17.952Z,26.42
2017-05-13T16:05:49.418Z,25.94
2017-05-13T16:08:16.220Z,26.68
2017-05-13T16:10:42.586Z,26.12
2017-05-13T16:13:08.956Z,26.07
2017-05-13T16:15:35.610Z,26.14
2017-05-13T16:18:02.389Z,25.96
2017-05-13T16:20:34.104Z,26.04
2017-05-13T16:23:00.534Z,25.98
2017-05-13T16:25:32.115Z,26.52
2017-05-13T16:27:58.823Z,26.24
2017-05-13T16:30:25.482Z,26.45
2017-05-13T16:32:51.873Z,25.13
2017-05-13T16:35:18.823Z,26.11
2017-05-13T16:37:45.772Z,25.89
2017-05-13T16:40:17.258Z,25.40
2017-05-13T16:42:44.191Z,25.69
2017-05-13T16:45:11.683Z,25.28
2017-05-13T16:47:38.011Z,24.96
2017-05-13T16:50:09.977Z,25.32
2017-05-13T16:52:37.100Z,25.17
2017-05-13T16:55:03.575Z,24.85
2017-05-13T16:57:30.354Z,24.88
2017-05-13T16:59:57.019Z,24.06
2017-05-13T17:02:23.653Z,24.49
2017-05-13T17:04:51.944Z,24.55
2017-05-13T17:07:18.775Z,24.56
2017-05-13T17:09:50.345Z,24.08
2017-05-13T17:12:19.791Z,24.26
2017-05-13T17:14:46.127Z,23.76
2017-05-13T17:17:12.607Z,24.25
2017-05-13T17:19:39.192Z,23.84
2017-05-13T17:22:05.877Z,24.36
2017-05-13T17:24:33.140Z,23.51
2017-05-13T17:26:59.836Z,23.59
2017-05-13T17:29:26.189Z,23.36
2017-05-13T17:31:52.875Z,23.29
2017-05-13T17:34:19.682Z,23.18
2017-05-13T17:36:46.201Z,22.91
2017-05-13T17:39:17.819Z,22.88
2017-05-13T17:41:44.261Z,23.27
2017-05-13T17:44:10.695Z,22.66
2017-05-13T17:46:37.055Z,22.94
2017-05-13T17:49:06.603Z,23.02
2017-05-13T17:51:33.028Z,22.82
2017-05-13T17:53:59.883Z,22.94
2017-05-13T17:56:31.494Z,22.85
2017-05-13T17:58:59.514Z,22.80
2017-05-13T18:01:25.907Z,22.76
2017-05-13T18:03:52.730Z,22.42
2017-05-13T18:06:19.056Z,22.84
2017-05-13T18:08:46.505Z,22.89
2017-05-13T18:11:16.960Z,22.51
2017-05-13T18:13:43.390Z,22.88
2017-05-13T18:16:09.882Z,22.43
2017-05-13T18:18:36.319Z,22.44
2017-05-13T18:21:07.954Z,22.15
2017-05-13T18:23:37.518Z,22.20
2017-05-13T18:26:05.009Z,22.17
2017-05-13T18:28:36.742Z,22.12
2017-05-13T18:31:03.171Z,22.02
2017-05-13T18:33:30.051Z,21.60
2017-05-13T18:36:02.151Z,21.88
2017-05-13T18:38:34.553Z,21.81
2017-05-13T18:41:01.002Z,21.62
2017-05-13T18:43:27.823Z,21.48
2017-05-13T18:45:54.194Z,21.81
2017-05-13T18:48:26.241Z,21.77
2017-05-13T18:50:52.780Z,21.61
2017-05-13T18:53:27.198Z,21.64
2017-05-13T18:55:53.933Z,21.61
2017-05-13T18:58:27.815Z,21.96
2017-05-13T19:00:54.138Z,21.16
2017-05-13T19:03:20.987Z,21.68
2017-05-13T19:05:47.336Z,21.31
2017-05-13T19:08:14.346Z,21.46
2017-05-13T19:10:41.898Z,20.71
2017-05-13T19:13:08.576Z,21.48
2017-05-13T19:15:35.448Z,20.89
2017-05-13T19:18:07.909Z,20.87
2017-05-13T19:20:34.341Z,20.50
2017-05-13T19:23:00.691Z,20.50
2017-05-13T19:25:27.194Z,20.82
2017-05-13T19:27:54.050Z,21.21
2017-05-13T19:30:20.438Z,21.09
2017-05-13T19:32:52.069Z,19.97
2017-05-13T19:35:18.415Z,20.01
2017-05-13T19:37:44.881Z,20.19
2017-05-13T19:40:14.656Z,20.48
2017-05-13T19:42:41.248Z,20.48
2017-05-13T19:45:07.729Z,20.16
2017-05-13T19:47:34.628Z,20.13
2017-05-13T19:50:06.091Z,20.13
2017-05-13T19:52:32.656Z,20.28
2017-05-13T19:55:00.366Z,19.71
2017-05-13T19:57:26.803Z,19.65
2017-05-13T19:59:54.118Z,19.53
2017-05-13T20:02:21.975Z,19.38
2017-05-13T20:04:48.494Z,18.93
2017-05-13T20:07:15.517Z,18.55
2017-05-13T20:09:41.946Z,18.77
2017-05-13T20:12:09.374Z,19.25
2017-05-13T20:14:36.040Z,19.11
2017-05-13T20:17:03.573Z,18.89
2017-05-13T20:19:31.036Z,19.12
2017-05-13T20:21:57.745Z,18.74
2017-05-13T20:24:31.314Z,19.30
2017-05-13T20:29:36.950Z,18.57
2017-05-13T20:32:03.372Z,18.27
2017-05-13T20:34:30.776Z,18.55
2017-05-13T20:36:56.165Z,18.63
2017-05-13T20:39:23.488Z,19.53
2017-05-13T20:41:49.835Z,19.30
2017-05-13T20:44:16.250Z,19.01
2017-05-13T20:46:42.609Z,19.24
2017-05-13T20:49:08.963Z,18.85
2017-05-13T20:51:35.353Z,18.44
2017-05-13T20:54:01.713Z,18.88
2017-05-13T20:56:28.183Z,18.36
2017-05-13T20:58:54.576Z,18.99
2017-05-13T21:01:20.968Z,19.33
2017-05-13T21:03:47.310Z,19.07
2017-05-13T21:06:13.648Z,19.58
2017-05-13T21:08:40.023Z,18.58
2017-05-13T21:11:06.441Z,19.56
2017-05-13T21:13:32.788Z,19.84
2017-05-13T21:15:59.190Z,19.65
2017-05-13T21:18:25.520Z,19.63
2017-05-13T21:20:51.893Z,19.74
2017-05-13T21:23:18.296Z,19.84
2017-05-13T21:25:44.645Z,19.91
2017-05-13T21:28:11.026Z,19.93
2017-05-13T21:30:37.365Z,19.58
2017-05-13T21:33:03.785Z,19.74
2017-05-13T21:35:30.155Z,19.41
2017-05-13T21:38:02.703Z,18.95
2017-05-13T21:40:29.035Z,19.06
2017-05-13T21:42:55.399Z,19.50
2017-05-13T21:45:21.749Z,19.62
2017-05-13T21:47:48.083Z,19.73
2017-05-13T21:50:14.441Z,19.67
2017-05-13T21:52:40.765Z,19.03
2017-05-13T21:55:07.157Z,18.29
2017-05-13T21:57:33.535Z,18.83
2017-05-13T21:59:59.885Z,19.36
2017-05-13T22:02:26.198Z,19.29
2017-05-13T22:04:52.530Z,19.63
2017-05-13T22:07:18.929Z,19.67
2017-05-13T22:09:45.246Z,19.67
2017-05-13T22:12:11.571Z,19.62
2017-05-13T22:14:37.896Z,19.56
2017-05-13T22:17:04.262Z,18.32
2017-05-13T22:19:30.595Z,18.55
2017-05-13T22:21:56.987Z,18.55
2017-05-13T22:24:23.352Z,19.17
2017-05-13T22:26:49.703Z,18.68
2017-05-13T22:29:16.049Z,18.98
2017-05-13T22:31:42.390Z,18.79
2017-05-13T22:34:08.742Z,18.16
2017-05-13T22:36:35.073Z,17.67
2017-05-13T22:39:01.421Z,17.70
2017-05-13T22:41:27.745Z,18.13
2017-05-13T22:43:54.101Z,18.48
2017-05-13T22:46:20.466Z,19.11
2017-05-13T22:48:46.798Z,18.45
2017-05-13T22:51:13.147Z,18.51
2017-05-13T22:53:39.470Z,19.16
2017-05-13T22:56:05.843Z,19.38
2017-05-13T22:58:32.214Z,19.32
2017-05-13T23:00:58.594Z,19.32
2017-05-13T23:03:24.980Z,19.31
2017-05-13T23:05:51.309Z,19.31
2017-05-13T23:08:17.988Z,18.61
2017-05-13T23:10:44.377Z,18.67
2017-05-13T23:13:10.709Z,19.04
2017-05-13T23:15:37.043Z,19.11
2017-05-13T23:18:03.423Z,18.43
2017-05-13T23:20:29.780Z,17.22
2017-05-13T23:22:56.115Z,17.15
2017-05-13T23:25:22.804Z,17.43
2017-05-13T23:27:50.201Z,17.92
2017-05-13T23:30:17.424Z,18.58
2017-05-13T23:32:43.810Z,18.55
2017-05-13T23:35:10.172Z,18.97
2017-05-13T23:37:36.502Z,18.64
2017-05-13T23:40:03.160Z,18.57
2017-05-13T23:42:29.600Z,18.56
2017-05-13T23:44:56.018Z,18.43
2017-05-13T23:47:22.882Z,18.93
2017-05-13T23:49:49.214Z,18.95
2017-05-13T23:52:15.997Z,18.94
2017-05-13T23:54:42.910Z,18.91
2017-05-13T23:57:10.188Z,18.05
2017-05-13T23:59:37.231Z,18.17
